GYD weather

Heydar Aliyev International Airport
Baku, Baki, Azerbaijan

Public forecast

Using degrees Celsius for public forecast. Weather courtesy of forecast.io.

METAR (pilot weather report)

Retrieved 2019/05/26 05:30 UTC (0 seconds ago):

UBBB 260530Z 35019KT CAVOK 24/17 Q1011 R88/D NOSIG

TAF (pilot weather forecast)

Forecast is more than 12 hours old.

Retrieved 2019/05/25 00:10 UTC (1 day ago):

TAF UBBB 252308Z 2600/2624 22006KT CAVOK TX24/2610Z TN21/2602Z TEMPO 2600/2603 29006KT SCT005 BECMG 2603/2605 33018G28KT FEW050CB SCT100 TEMPO 2610/2622 -SHRA SCT010 BKN040CB PROB40 TEMPO 2610/2618 TS